Pagrindinis puslapis
METAR-TAF:

METAR-TAF

Oro uostai :

Insbruko oro uostas

Insbrukas, Austrija

platuma: 47-16N, ilguma: 011-21E, Aukštis: 581 m

Dabartinis oras

Ataskaita buvo paskelbta 37 minutes, ne 12:50 UTC
Vėjas 7 kt iš Vakarų/Pietvakarių
Temperatūra 17°C
Drėgmė 25%
Slėgis 1030 hPa
Matomumas 10 km arba daugiau
nėra debesų žemiau 1500 m ir nėra kamuolinių lietaus debesų

METAR: LOWI 251250Z 25007KT CAVOK 17/M03 Q1030 NOSIG

Laikas: 14:27 (13:27 UTC)

Prognozė

Ataskaita buvo paskelbta 2 valandos ir 12 minutes, ne 11:15 UTC
Prognozė galioja nuo 25 metu 12 UTC su 26 metu 12 UTC
Vėjas 6 kt iš Vakarų
Matomumas 10 km arba daugiau
nėra debesų žemiau 1500 m ir nėra kamuolinių lietaus debesų

TAF: LOWI 251115Z 2512/2612 27006KT CAVOK TX19/2515Z TNM00/2606Z

Orai ataskaitas ir orų prognozės (METAR, TAF).

turimą stotys yra geltonos ir raudonos taškus žemėlapyje.

Perkelti pele per norėdami pamatyti stoties vardą.

Tada spustelėkite, norėdami matyti oro stebėjimo ir prognozės.

Norėdami pakeisti žemėlapį: spustelėkite ant žalios mygtukų su juodo kryžiaus žemyn,; žalią mygtuką su brūkšneliu, jei norite nutolinti; arba žalių rodyklių gretimoms žemėlapius.


METAR-TAF: